Time;durP1;ratioP1;P1;durP2;ratioP2;P2;SDS_P1;SDS_P2;PMS_P1;PMS_P2;Temp;Humidity;BMP_temperature;BMP_pressure;BME280_temperature;BME280_humidity;BME280_pressure;Samples;Min_cycle;Max_cycle;Signal;HPM_P1;HPM_P2
2023/01/27 00:00:35;;;;;;;12.93;8.23;;;;;;;;;;5002931;28;20201;-56
2023/01/27 00:03:02;;;;;;;12.73;8.77;;;;;;;;;;5001442;28;20215;-56
2023/01/27 00:05:29;;;;;;;13.13;9.20;;;;;;;;;;5002639;28;20207;-54
2023/01/27 00:07:57;;;;;;;12.40;8.40;;;;;;;;;;5001888;28;20665;-58
2023/01/27 00:10:26;;;;;;;10.70;8.03;;;;;;;;;;5008350;28;20328;-57
2023/01/27 00:15:38;;;;;;;11.73;7.80;;;;;;;;;;5005355;28;20294;-55
2023/01/27 00:18:06;;;;;;;12.13;9.03;;;;;;;;;;5007317;28;20204;-53
2023/01/27 00:26:06;;;;;;;10.97;8.23;;;;;;;;;;5010688;28;20212;-55
2023/01/27 00:28:33;;;;;;;13.67;9.20;;;;;;;;;;5010727;28;20221;-54
2023/01/27 00:31:00;;;;;;;11.63;8.17;;;;;;;;;;5004343;28;20205;-58
2023/01/27 00:33:27;;;;;;;11.80;8.30;;;;;;;;;;5002634;28;20910;-54
2023/01/27 00:35:58;;;;;;;12.77;8.27;;;;;;;;;;5004660;28;20200;-55
2023/01/27 00:38:25;;;;;;;11.27;7.63;;;;;;;;;;5003286;28;20205;-57
2023/01/27 00:43:39;;;;;;;11.23;8.17;;;;;;;;;;5005655;28;20207;-55
2023/01/27 00:46:06;;;;;;;11.33;7.63;;;;;;;;;;5002605;28;20205;-55
2023/01/27 00:48:33;;;;;;;10.87;8.10;;;;;;;;;;5000469;28;20231;-55
2023/01/27 00:51:01;;;;;;;11.07;8.00;;;;;;;;;;5006305;28;20200;-55
2023/01/27 00:53:28;;;;;;;9.97;7.63;;;;;;;;;;5008472;28;20205;-57
2023/01/27 00:55:57;;;;;;;10.17;7.23;;;;;;;;;;5004346;28;20202;-54
2023/01/27 00:58:24;;;;;;;11.50;7.77;;;;;;;;;;5006810;28;20211;-54
2023/01/27 01:00:54;;;;;;;10.67;7.10;;;;;;;;;;5007469;28;20197;-54
2023/01/27 01:03:22;;;;;;;8.90;6.83;;;;;;;;;;5004387;28;20211;-55
2023/01/27 01:05:49;;;;;;;10.53;7.47;;;;;;;;;;5004793;28;20205;-51
2023/01/27 01:08:16;;;;;;;9.60;7.40;;;;;;;;;;5008691;28;20205;-56
2023/01/27 01:10:44;;;;;;;10.63;7.63;;;;;;;;;;5001747;28;20219;-56
2023/01/27 01:13:11;;;;;;;9.67;7.30;;;;;;;;;;5003625;28;20299;-57
2023/01/27 01:15:38;;;;;;;11.87;8.03;;;;;;;;;;5000579;28;20725;-55
2023/01/27 01:18:07;;;;;;;11.53;8.20;;;;;;;;;;5003532;28;20209;-56
2023/01/27 01:20:36;;;;;;;11.80;8.73;;;;;;;;;;4999973;28;20204;-56
2023/01/27 01:23:03;;;;;;;10.83;8.10;;;;;;;;;;5002917;28;20204;-56
2023/01/27 01:25:30;;;;;;;11.07;8.00;;;;;;;;;;5000981;28;20207;-57
2023/01/27 01:27:58;;;;;;;10.17;7.87;;;;;;;;;;5001660;28;20202;-55
2023/01/27 01:30:26;;;;;;;10.80;8.10;;;;;;;;;;5003328;28;20229;-57
2023/01/27 01:32:53;;;;;;;10.80;7.77;;;;;;;;;;5005593;28;20233;-56
2023/01/27 01:35:22;;;;;;;12.67;8.77;;;;;;;;;;5006138;28;20213;-55
2023/01/27 01:37:49;;;;;;;12.07;8.67;;;;;;;;;;5001778;28;20205;-55
2023/01/27 01:40:16;;;;;;;13.50;9.03;;;;;;;;;;5006171;28;20197;-57
2023/01/27 01:42:49;;;;;;;12.40;8.23;;;;;;;;;;5007675;28;20208;-57
2023/01/27 01:45:46;;;;;;;14.30;9.63;;;;;;;;;;5006597;28;20230;-51
2023/01/27 01:48:16;;;;;;;11.87;8.20;;;;;;;;;;4940887;28;20206;-58
2023/01/27 01:50:46;;;;;;;14.00;9.27;;;;;;;;;;4987495;28;20235;-58
2023/01/27 01:53:13;;;;;;;13.47;9.23;;;;;;;;;;5003348;28;20627;-57
2023/01/27 01:55:41;;;;;;;17.23;10.27;;;;;;;;;;5000158;28;20201;-55
2023/01/27 01:58:11;;;;;;;15.47;9.77;;;;;;;;;;5001168;28;20215;-55
2023/01/27 02:00:38;;;;;;;13.47;9.40;;;;;;;;;;5004951;28;20201;-57
2023/01/27 02:03:05;;;;;;;12.50;8.67;;;;;;;;;;5007867;28;20208;-55
2023/01/27 02:05:34;;;;;;;15.30;10.07;;;;;;;;;;5004127;28;20209;-58
2023/01/27 02:08:05;;;;;;;17.47;9.77;;;;;;;;;;5004496;28;20205;-57
2023/01/27 02:10:33;;;;;;;13.77;9.30;;;;;;;;;;5006303;28;20237;-55
2023/01/27 02:13:00;;;;;;;15.43;9.23;;;;;;;;;;5003549;28;20208;-55
2023/01/27 02:15:29;;;;;;;13.70;9.00;;;;;;;;;;5008320;28;20327;-57
2023/01/27 02:17:56;;;;;;;14.40;8.93;;;;;;;;;;5007557;28;20207;-58
2023/01/27 02:20:28;;;;;;;12.57;9.10;;;;;;;;;;5009931;28;20193;-57
2023/01/27 02:22:58;;;;;;;11.43;8.50;;;;;;;;;;5002271;28;20213;-57
2023/01/27 02:25:30;;;;;;;13.50;8.33;;;;;;;;;;5004514;28;20201;-57
2023/01/27 02:27:58;;;;;;;12.17;8.30;;;;;;;;;;5002581;28;20210;-57
2023/01/27 02:30:26;;;;;;;13.10;8.60;;;;;;;;;;5002508;28;20221;-57
2023/01/27 02:32:53;;;;;;;13.87;9.10;;;;;;;;;;5004284;28;20208;-57
2023/01/27 02:35:22;;;;;;;12.93;9.10;;;;;;;;;;5003764;28;20208;-58
2023/01/27 02:37:50;;;;;;;13.53;9.33;;;;;;;;;;4999195;28;20216;-55
2023/01/27 02:40:18;;;;;;;14.73;9.60;;;;;;;;;;5004238;28;20207;-57
2023/01/27 02:42:45;;;;;;;14.67;9.33;;;;;;;;;;4999144;28;20219;-58
2023/01/27 02:45:13;;;;;;;13.23;9.07;;;;;;;;;;4998663;28;20209;-57
2023/01/27 02:47:41;;;;;;;13.20;9.53;;;;;;;;;;4998406;28;20307;-56
2023/01/27 02:50:08;;;;;;;16.50;9.80;;;;;;;;;;4999850;28;20220;-57
2023/01/27 02:52:35;;;;;;;14.23;9.30;;;;;;;;;;5005733;28;20205;-58
2023/01/27 02:55:02;;;;;;;13.57;9.00;;;;;;;;;;5004940;28;20243;-55
2023/01/27 02:57:30;;;;;;;13.87;9.33;;;;;;;;;;5003583;28;20211;-56
2023/01/27 02:59:57;;;;;;;16.70;10.33;;;;;;;;;;5000160;28;20212;-56
2023/01/27 03:02:29;;;;;;;14.27;9.80;;;;;;;;;;4999844;28;20209;-56
2023/01/27 03:04:56;;;;;;;15.77;9.93;;;;;;;;;;5003250;28;20216;-56
2023/01/27 03:07:23;;;;;;;16.93;10.13;;;;;;;;;;5002821;28;20209;-58
2023/01/27 03:09:51;;;;;;;14.87;9.80;;;;;;;;;;5003472;28;20312;-58
2023/01/27 03:12:21;;;;;;;12.60;8.93;;;;;;;;;;5004264;28;20332;-58
2023/01/27 03:20:21;;;;;;;14.23;9.93;;;;;;;;;;5002125;28;20225;-56
2023/01/27 03:22:48;;;;;;;13.27;9.57;;;;;;;;;;5001452;28;20225;-57
2023/01/27 03:25:15;;;;;;;13.07;8.83;;;;;;;;;;5000363;28;20201;-58
2023/01/27 03:27:43;;;;;;;11.37;8.77;;;;;;;;;;5000795;28;20219;-55
2023/01/27 03:30:11;;;;;;;15.10;9.17;;;;;;;;;;5002996;28;20246;-57
2023/01/27 03:32:45;;;;;;;14.30;9.57;;;;;;;;;;5002657;28;20219;-56
2023/01/27 03:35:12;;;;;;;12.50;8.70;;;;;;;;;;4999464;28;20224;-55
2023/01/27 03:48:40;;;;;;;12.60;8.90;;;;;;;;;;5002160;28;20206;-58
2023/01/27 03:51:09;;;;;;;11.40;8.57;;;;;;;;;;5001422;28;20239;-58
2023/01/27 03:53:36;;;;;;;11.03;7.50;;;;;;;;;;5001040;28;20204;-58
2023/01/27 03:56:04;;;;;;;10.90;8.27;;;;;;;;;;5003244;28;20205;-57
2023/01/27 03:58:33;;;;;;;14.50;9.50;;;;;;;;;;5004935;28;20207;-58
2023/01/27 04:01:01;;;;;;;13.83;8.83;;;;;;;;;;5007327;28;20287;-57
2023/01/27 04:09:02;;;;;;;9.07;7.20;;;;;;;;;;5003776;28;20199;-58
2023/01/27 04:14:15;;;;;;;11.67;8.27;;;;;;;;;;5009822;28;20359;-57
2023/01/27 04:16:42;;;;;;;10.97;7.70;;;;;;;;;;5005120;28;20216;-58
2023/01/27 04:19:10;;;;;;;9.60;7.90;;;;;;;;;;5008782;28;20204;-55
2023/01/27 04:21:39;;;;;;;9.20;7.73;;;;;;;;;;5006795;28;20294;-54
2023/01/27 04:24:07;;;;;;;11.50;7.80;;;;;;;;;;5008469;28;20296;-55
2023/01/27 04:26:35;;;;;;;10.27;7.73;;;;;;;;;;5008841;28;20204;-57
2023/01/27 04:29:02;;;;;;;8.90;7.67;;;;;;;;;;5007230;28;20212;-56
2023/01/27 04:31:29;;;;;;;11.47;9.00;;;;;;;;;;5007499;28;20225;-58
2023/01/27 04:33:57;;;;;;;10.23;8.27;;;;;;;;;;5005556;28;20231;-58
2023/01/27 04:36:24;;;;;;;10.00;7.43;;;;;;;;;;5007150;28;20276;-56
2023/01/27 04:38:52;;;;;;;10.10;7.30;;;;;;;;;;5002283;28;20211;-57
2023/01/27 04:41:20;;;;;;;11.80;8.70;;;;;;;;;;5004947;28;20219;-57
2023/01/27 04:43:47;;;;;;;10.13;7.27;;;;;;;;;;5005558;28;20249;-56
2023/01/27 04:46:14;;;;;;;8.63;7.17;;;;;;;;;;5001959;28;20209;-56
2023/01/27 04:48:41;;;;;;;9.40;7.73;;;;;;;;;;5001621;28;20220;-56
2023/01/27 04:51:08;;;;;;;9.60;7.13;;;;;;;;;;5003537;28;20251;-57
2023/01/27 04:53:35;;;;;;;8.23;6.63;;;;;;;;;;5005194;28;20200;-57
2023/01/27 04:56:05;;;;;;;7.87;6.27;;;;;;;;;;5002033;28;20215;-58
2023/01/27 04:58:32;;;;;;;7.63;5.87;;;;;;;;;;5007526;28;20209;-57
2023/01/27 05:00:59;;;;;;;6.23;5.60;;;;;;;;;;5005970;28;20197;-57
2023/01/27 05:03:26;;;;;;;7.23;6.27;;;;;;;;;;5003999;28;20211;-57
2023/01/27 05:05:54;;;;;;;6.63;5.83;;;;;;;;;;5007476;28;20211;-56
2023/01/27 05:08:21;;;;;;;7.20;5.83;;;;;;;;;;5008138;28;20215;-57
2023/01/27 05:10:48;;;;;;;6.60;5.70;;;;;;;;;;5007402;28;20229;-57
2023/01/27 05:13:16;;;;;;;6.77;5.63;;;;;;;;;;5007397;28;20212;-57
2023/01/27 05:15:44;;;;;;;5.63;5.03;;;;;;;;;;5006430;28;20297;-56
2023/01/27 05:18:11;;;;;;;6.00;5.40;;;;;;;;;;5005442;28;20213;-57
2023/01/27 05:20:38;;;;;;;5.77;5.17;;;;;;;;;;5002036;28;20193;-55
2023/01/27 05:26:02;;;;;;;6.43;5.00;;;;;;;;;;4921328;29;20256;-55
2023/01/27 05:28:31;;;;;;;5.70;4.80;;;;;;;;;;4987007;28;20274;-57
2023/01/27 05:31:01;;;;;;;6.13;5.10;;;;;;;;;;5000156;28;20225;-56
2023/01/27 05:33:28;;;;;;;5.27;4.77;;;;;;;;;;5001213;28;20197;-57
2023/01/27 05:35:58;;;;;;;5.07;4.57;;;;;;;;;;5000738;28;20231;-57
2023/01/27 05:38:25;;;;;;;6.10;5.00;;;;;;;;;;5002397;28;20205;-55
2023/01/27 05:40:55;;;;;;;5.20;4.70;;;;;;;;;;5004449;28;20208;-57
2023/01/27 05:43:22;;;;;;;5.07;4.57;;;;;;;;;;5000413;28;20216;-57
2023/01/27 05:45:50;;;;;;;5.33;4.83;;;;;;;;;;5003761;28;20634;-54
2023/01/27 05:48:18;;;;;;;6.67;5.10;;;;;;;;;;4996914;28;20212;-55
2023/01/27 05:50:53;;;;;;;4.87;4.33;;;;;;;;;;4997828;28;20280;-55
2023/01/27 05:53:21;;;;;;;5.60;4.37;;;;;;;;;;5001100;28;20210;-53
2023/01/27 05:55:48;;;;;;;4.60;4.10;;;;;;;;;;5000748;28;20305;-52
2023/01/27 05:58:16;;;;;;;4.60;4.10;;;;;;;;;;5006110;28;20216;-55
2023/01/27 06:00:43;;;;;;;4.50;4.10;;;;;;;;;;5003999;28;20200;-55
2023/01/27 06:03:11;;;;;;;4.13;3.77;;;;;;;;;;5008082;28;20205;-56
2023/01/27 06:05:39;;;;;;;4.97;4.47;;;;;;;;;;5003131;28;20211;-58
2023/01/27 06:08:06;;;;;;;4.33;3.80;;;;;;;;;;5008263;28;20204;-56
2023/01/27 06:10:36;;;;;;;3.93;3.57;;;;;;;;;;5003493;28;20227;-55
2023/01/27 06:13:03;;;;;;;4.40;4.00;;;;;;;;;;4999804;28;20201;-56
2023/01/27 06:15:31;;;;;;;4.43;4.03;;;;;;;;;;5003110;28;20241;-55
2023/01/27 06:17:58;;;;;;;3.93;3.63;;;;;;;;;;5004733;28;20204;-53
2023/01/27 06:20:27;;;;;;;4.13;3.83;;;;;;;;;;5006684;28;20197;-57
2023/01/27 06:22:54;;;;;;;4.30;3.90;;;;;;;;;;5006933;28;20209;-55
2023/01/27 06:25:21;;;;;;;5.10;4.60;;;;;;;;;;5008814;28;20219;-55
2023/01/27 06:27:48;;;;;;;4.70;4.00;;;;;;;;;;5007739;28;20205;-57
2023/01/27 06:30:15;;;;;;;4.40;4.00;;;;;;;;;;5001624;28;20255;-53
2023/01/27 06:32:42;;;;;;;4.20;3.90;;;;;;;;;;5006431;28;20208;-58
2023/01/27 06:35:10;;;;;;;4.23;3.83;;;;;;;;;;4999842;28;20220;-54
2023/01/27 06:37:38;;;;;;;4.90;4.13;;;;;;;;;;4997965;28;20211;-56
2023/01/27 06:40:06;;;;;;;4.57;4.17;;;;;;;;;;5003601;28;20209;-56
2023/01/27 06:42:33;;;;;;;4.37;3.97;;;;;;;;;;4999007;28;20205;-56
2023/01/27 06:45:00;;;;;;;3.90;3.60;;;;;;;;;;5000893;28;20499;-52
2023/01/27 06:47:27;;;;;;;4.20;3.80;;;;;;;;;;4998680;28;20201;-57
2023/01/27 06:49:54;;;;;;;4.43;3.90;;;;;;;;;;5003554;28;20223;-54
2023/01/27 06:52:21;;;;;;;4.83;4.00;;;;;;;;;;5004352;28;20213;-58
2023/01/27 06:54:50;;;;;;;4.40;4.00;;;;;;;;;;4998689;28;20210;-59
2023/01/27 06:57:17;;;;;;;5.33;3.93;;;;;;;;;;5000041;28;20204;-57
2023/01/27 06:59:44;;;;;;;4.10;3.70;;;;;;;;;;5002510;28;20219;-54
2023/01/27 07:02:12;;;;;;;5.77;5.13;;;;;;;;;;5004526;28;20207;-52
2023/01/27 07:04:40;;;;;;;3.93;3.60;;;;;;;;;;5003655;28;20196;-55
2023/01/27 07:07:07;;;;;;;3.87;3.47;;;;;;;;;;5002909;28;20223;-55
2023/01/27 07:09:34;;;;;;;3.97;3.57;;;;;;;;;;5006903;28;20217;-56
2023/01/27 07:12:02;;;;;;;4.63;3.93;;;;;;;;;;4999476;28;20231;-56
2023/01/27 07:14:29;;;;;;;3.80;3.50;;;;;;;;;;4964567;28;1114796;-54
2023/01/27 07:16:57;;;;;;;3.97;3.57;;;;;;;;;;4997375;28;20304;-57
2023/01/27 07:19:24;;;;;;;3.67;3.37;;;;;;;;;;5001826;28;20213;-55
2023/01/27 07:21:51;;;;;;;4.13;3.70;;;;;;;;;;4999019;28;20200;-54
2023/01/27 07:24:18;;;;;;;5.17;4.40;;;;;;;;;;4992013;28;20293;-54
2023/01/27 07:26:47;;;;;;;3.90;3.53;;;;;;;;;;4994496;28;20204;-57
2023/01/27 07:29:18;;;;;;;4.13;3.73;;;;;;;;;;4988159;28;20459;-56
2023/01/27 07:31:49;;;;;;;3.90;3.53;;;;;;;;;;4992857;28;20224;-57
2023/01/27 07:34:16;;;;;;;4.13;3.73;;;;;;;;;;4995807;28;20397;-54
2023/01/27 07:36:43;;;;;;;3.60;3.30;;;;;;;;;;4996819;28;20216;-54
2023/01/27 07:39:10;;;;;;;4.23;3.83;;;;;;;;;;4996553;28;20218;-50
2023/01/27 07:41:37;;;;;;;4.57;4.17;;;;;;;;;;4991788;28;20201;-54
2023/01/27 07:44:05;;;;;;;4.10;3.67;;;;;;;;;;4997447;28;20209;-54
2023/01/27 07:46:33;;;;;;;3.97;3.67;;;;;;;;;;4995973;28;20240;-54
2023/01/27 07:49:01;;;;;;;3.80;3.50;;;;;;;;;;4992946;28;20220;-55
2023/01/27 07:51:28;;;;;;;3.80;3.50;;;;;;;;;;4990554;28;20283;-55
2023/01/27 07:53:55;;;;;;;3.63;3.27;;;;;;;;;;4994485;28;20216;-51
2023/01/27 07:56:22;;;;;;;3.30;3.00;;;;;;;;;;4995654;28;20209;-56
2023/01/27 07:58:50;;;;;;;3.30;3.10;;;;;;;;;;4992441;28;20215;-52
2023/01/27 08:01:17;;;;;;;3.73;3.33;;;;;;;;;;4991576;28;20208;-55
2023/01/27 08:03:46;;;;;;;2.87;2.67;;;;;;;;;;4990585;28;20224;-52
2023/01/27 08:06:13;;;;;;;3.60;3.30;;;;;;;;;;4991318;28;20398;-55
2023/01/27 08:08:41;;;;;;;3.30;3.00;;;;;;;;;;4994280;28;20524;-55
2023/01/27 08:11:09;;;;;;;3.13;2.83;;;;;;;;;;4991057;28;20221;-53
2023/01/27 08:13:36;;;;;;;2.87;2.67;;;;;;;;;;4994786;28;20208;-57
2023/01/27 08:16:05;;;;;;;3.27;2.97;;;;;;;;;;4993574;28;20205;-55
2023/01/27 08:18:33;;;;;;;3.40;3.10;;;;;;;;;;4998602;28;20255;-56
2023/01/27 08:21:02;;;;;;;3.10;2.90;;;;;;;;;;4997463;28;20209;-53
2023/01/27 08:23:29;;;;;;;3.37;3.00;;;;;;;;;;4997893;28;20208;-54
2023/01/27 08:25:57;;;;;;;3.17;2.90;;;;;;;;;;4998206;28;20215;-56
2023/01/27 08:28:24;;;;;;;2.90;2.70;;;;;;;;;;4997541;28;20207;-56
2023/01/27 08:30:52;;;;;;;3.50;3.20;;;;;;;;;;4997632;28;20231;-57
2023/01/27 08:33:20;;;;;;;3.27;2.97;;;;;;;;;;4998293;28;20252;-56
2023/01/27 08:35:47;;;;;;;3.33;3.03;;;;;;;;;;4997319;28;20204;-56
2023/01/27 08:38:16;;;;;;;3.30;3.00;;;;;;;;;;4995124;28;20205;-56
2023/01/27 08:40:43;;;;;;;3.60;3.17;;;;;;;;;;4996527;28;20205;-57
2023/01/27 08:43:10;;;;;;;2.87;2.60;;;;;;;;;;4996710;28;20205;-57
2023/01/27 08:45:38;;;;;;;2.67;2.47;;;;;;;;;;4999152;28;20230;-58
2023/01/27 08:48:05;;;;;;;2.70;2.50;;;;;;;;;;4996902;28;20219;-58
2023/01/27 08:50:33;;;;;;;2.90;2.70;;;;;;;;;;4995679;28;20209;-56
2023/01/27 08:53:00;;;;;;;3.30;3.00;;;;;;;;;;4998346;28;20219;-57
2023/01/27 08:55:29;;;;;;;2.80;2.60;;;;;;;;;;5000933;28;20211;-55
2023/01/27 08:57:56;;;;;;;2.87;2.57;;;;;;;;;;4997213;28;20208;-55
2023/01/27 09:00:24;;;;;;;2.93;2.63;;;;;;;;;;5000143;28;20213;-56
2023/01/27 09:02:51;;;;;;;3.07;2.77;;;;;;;;;;5000611;28;20260;-55
2023/01/27 09:05:18;;;;;;;4.07;2.77;;;;;;;;;;4996273;28;20208;-53
2023/01/27 09:07:45;;;;;;;3.07;2.53;;;;;;;;;;4999649;28;20212;-54
2023/01/27 09:10:13;;;;;;;2.50;2.30;;;;;;;;;;4999999;28;20219;-56
2023/01/27 09:12:41;;;;;;;2.60;2.23;;;;;;;;;;4995534;28;20217;-54
2023/01/27 09:15:09;;;;;;;2.40;2.20;;;;;;;;;;4999843;28;20241;-56
2023/01/27 09:17:36;;;;;;;2.60;2.40;;;;;;;;;;4998873;28;20209;-55
2023/01/27 09:20:04;;;;;;;2.77;2.40;;;;;;;;;;4999206;28;20227;-56
2023/01/27 09:22:31;;;;;;;3.00;2.80;;;;;;;;;;5002255;28;20215;-57
2023/01/27 09:24:58;;;;;;;3.53;2.70;;;;;;;;;;5001880;28;20215;-54
2023/01/27 09:27:25;;;;;;;2.73;2.53;;;;;;;;;;4994081;28;20193;-55
2023/01/27 09:29:54;;;;;;;2.60;2.40;;;;;;;;;;4999001;28;20207;-54
2023/01/27 09:32:21;;;;;;;2.70;2.50;;;;;;;;;;5002069;28;20221;-56
2023/01/27 09:34:48;;;;;;;2.67;2.47;;;;;;;;;;5000424;28;20208;-53
2023/01/27 09:37:15;;;;;;;3.53;2.40;;;;;;;;;;5002676;28;20233;-54
2023/01/27 09:39:44;;;;;;;2.43;2.23;;;;;;;;;;4998787;28;20266;-56
2023/01/27 09:42:20;;;;;;;2.90;2.60;;;;;;;;;;5001402;28;20211;-53
2023/01/27 09:45:05;;;;;;;3.00;2.60;;;;;;;;;;5001311;28;20238;-55
2023/01/27 09:47:39;;;;;;;3.20;2.90;;;;;;;;;;5000464;28;20280;-56
2023/01/27 09:50:17;;;;;;;3.20;2.90;;;;;;;;;;4997655;28;20211;-56
2023/01/27 09:52:59;;;;;;;2.50;2.30;;;;;;;;;;4994619;28;20235;-56
2023/01/27 09:55:35;;;;;;;2.90;2.70;;;;;;;;;;4998978;28;20212;-54
2023/01/27 09:58:07;;;;;;;2.87;2.67;;;;;;;;;;4992428;28;20333;-55
2023/01/27 10:00:43;;;;;;;2.60;2.40;;;;;;;;;;5000572;28;20197;-56
2023/01/27 10:03:23;;;;;;;2.60;2.40;;;;;;;;;;5000194;28;20288;-56
2023/01/27 10:05:56;;;;;;;2.87;2.60;;;;;;;;;;5000611;28;20211;-57
2023/01/27 10:08:31;;;;;;;3.67;2.90;;;;;;;;;;4998613;28;20285;-54
2023/01/27 10:11:06;;;;;;;3.33;2.80;;;;;;;;;;4997079;28;20204;-56
2023/01/27 10:13:37;;;;;;;3.43;3.10;;;;;;;;;;4996131;28;20208;-50
2023/01/27 10:16:16;;;;;;;4.07;3.17;;;;;;;;;;4999245;28;20204;-57
2023/01/27 10:18:57;;;;;;;2.60;2.40;;;;;;;;;;4993734;28;20231;-56
2023/01/27 10:21:30;;;;;;;2.60;2.40;;;;;;;;;;4999046;28;20211;-54
2023/01/27 10:24:03;;;;;;;4.60;3.30;;;;;;;;;;4994440;28;20192;-57
2023/01/27 10:26:32;;;;;;;3.03;2.70;;;;;;;;;;4995750;28;20197;-53
2023/01/27 10:29:03;;;;;;;3.17;2.47;;;;;;;;;;4999717;28;20210;-56
2023/01/27 10:31:36;;;;;;;2.90;2.70;;;;;;;;;;4993874;28;20308;-55
2023/01/27 10:34:05;;;;;;;3.40;3.07;;;;;;;;;;4996811;28;20204;-56
2023/01/27 10:36:38;;;;;;;3.10;2.80;;;;;;;;;;4998616;28;20201;-55
2023/01/27 10:39:12;;;;;;;3.10;2.87;;;;;;;;;;4994779;28;20207;-54
2023/01/27 10:41:44;;;;;;;4.07;3.70;;;;;;;;;;4994255;28;20200;-58
2023/01/27 10:44:20;;;;;;;4.37;3.97;;;;;;;;;;4993172;28;20208;-57
2023/01/27 10:46:52;;;;;;;3.80;3.40;;;;;;;;;;4992161;28;20228;-57
2023/01/27 10:49:23;;;;;;;4.77;3.50;;;;;;;;;;4998530;28;20211;-57
2023/01/27 10:51:53;;;;;;;3.47;3.17;;;;;;;;;;4996657;28;20237;-57
2023/01/27 10:54:23;;;;;;;3.50;3.20;;;;;;;;;;4996557;28;20205;-55
2023/01/27 10:56:52;;;;;;;3.67;3.20;;;;;;;;;;4993383;28;20197;-58
2023/01/27 10:59:23;;;;;;;2.70;2.50;;;;;;;;;;4992726;28;20275;-55
2023/01/27 11:01:53;;;;;;;3.23;2.90;;;;;;;;;;4994648;28;20228;-58
2023/01/27 11:04:26;;;;;;;2.47;2.27;;;;;;;;;;4993423;28;20312;-58
2023/01/27 11:06:54;;;;;;;2.73;2.53;;;;;;;;;;4991652;28;20247;-56
2023/01/27 11:09:26;;;;;;;3.00;2.70;;;;;;;;;;4994910;28;20201;-58
2023/01/27 11:11:54;;;;;;;2.40;2.20;;;;;;;;;;4992529;28;20217;-57
2023/01/27 11:14:25;;;;;;;2.63;2.40;;;;;;;;;;4997591;28;20224;-58
2023/01/27 11:16:56;;;;;;;2.27;2.10;;;;;;;;;;4993259;28;20222;-56
2023/01/27 11:19:26;;;;;;;2.43;2.23;;;;;;;;;;4997165;28;20205;-57
2023/01/27 11:21:54;;;;;;;2.33;2.13;;;;;;;;;;4991310;28;20283;-56
2023/01/27 11:24:25;;;;;;;2.57;2.37;;;;;;;;;;4998475;28;20204;-57
2023/01/27 11:26:57;;;;;;;3.50;2.30;;;;;;;;;;4993777;28;20197;-58
2023/01/27 11:29:28;;;;;;;3.03;2.73;;;;;;;;;;4991236;28;20197;-55
2023/01/27 11:31:59;;;;;;;2.70;2.50;;;;;;;;;;4989245;28;20220;-57
2023/01/27 11:34:28;;;;;;;2.63;2.43;;;;;;;;;;4992555;28;20201;-55
2023/01/27 11:36:55;;;;;;;3.37;3.00;;;;;;;;;;4997097;28;20205;-58
2023/01/27 11:39:22;;;;;;;2.73;2.53;;;;;;;;;;4992576;28;20204;-57
2023/01/27 11:41:51;;;;;;;2.70;2.50;;;;;;;;;;4992223;28;20206;-57
2023/01/27 11:44:20;;;;;;;2.93;2.70;;;;;;;;;;4999301;28;20202;-58
2023/01/27 11:46:47;;;;;;;5.40;4.87;;;;;;;;;;4997107;28;20205;-57
2023/01/27 11:49:18;;;;;;;2.70;2.50;;;;;;;;;;4998842;28;20211;-55
2023/01/27 11:51:47;;;;;;;3.20;2.90;;;;;;;;;;4989501;28;20220;-54
2023/01/27 11:54:16;;;;;;;3.10;2.90;;;;;;;;;;4988015;28;20213;-57
2023/01/27 11:56:46;;;;;;;3.53;2.90;;;;;;;;;;4982865;28;20219;-56
2023/01/27 11:59:15;;;;;;;2.73;2.53;;;;;;;;;;4980580;28;20196;-57
2023/01/27 12:01:46;;;;;;;3.00;2.80;;;;;;;;;;4976644;28;20204;-57
2023/01/27 12:04:15;;;;;;;2.63;2.30;;;;;;;;;;4981385;28;20583;-53
2023/01/27 12:06:46;;;;;;;2.23;2.03;;;;;;;;;;4976841;28;20232;-54
2023/01/27 12:09:28;;;;;;;2.17;2.00;;;;;;;;;;4981183;28;20395;-57
2023/01/27 12:12:10;;;;;;;2.53;2.33;;;;;;;;;;4981885;28;20193;-57
2023/01/27 12:14:37;;;;;;;2.37;2.17;;;;;;;;;;4986513;28;20371;-56
2023/01/27 12:17:05;;;;;;;2.90;2.30;;;;;;;;;;4984799;28;20200;-56
2023/01/27 12:19:35;;;;;;;3.23;2.90;;;;;;;;;;4987710;28;20213;-55
2023/01/27 12:22:09;;;;;;;2.77;2.57;;;;;;;;;;4991780;28;20197;-55
2023/01/27 12:24:37;;;;;;;2.40;2.20;;;;;;;;;;4997423;28;20287;-56
2023/01/27 12:27:04;;;;;;;2.40;2.20;;;;;;;;;;4998288;28;20419;-58
2023/01/27 12:29:37;;;;;;;3.10;2.80;;;;;;;;;;5000216;28;20205;-55
2023/01/27 12:32:04;;;;;;;2.30;2.10;;;;;;;;;;4998615;28;20213;-56
2023/01/27 12:34:33;;;;;;;2.03;1.93;;;;;;;;;;4997338;28;20208;-53
2023/01/27 12:37:01;;;;;;;1.93;1.83;;;;;;;;;;5001630;28;20201;-58
2023/01/27 12:39:36;;;;;;;1.80;1.70;;;;;;;;;;4999630;28;20204;-56
2023/01/27 12:42:03;;;;;;;3.00;2.70;;;;;;;;;;4995199;28;20244;-58
2023/01/27 12:44:41;;;;;;;2.20;2.00;;;;;;;;;;4994870;28;20193;-53
2023/01/27 12:47:19;;;;;;;3.57;2.40;;;;;;;;;;4996548;28;20476;-56
2023/01/27 12:49:47;;;;;;;4.13;3.70;;;;;;;;;;4980925;28;20197;-57
2023/01/27 12:52:18;;;;;;;2.80;2.20;;;;;;;;;;4982862;28;20217;-57
2023/01/27 12:54:46;;;;;;;2.43;2.20;;;;;;;;;;4978770;28;20209;-58
2023/01/27 12:57:16;;;;;;;2.30;2.00;;;;;;;;;;4980805;28;20223;-54
2023/01/27 12:59:47;;;;;;;5.30;4.47;;;;;;;;;;4988303;28;20235;-56
2023/01/27 13:02:18;;;;;;;4.87;3.63;;;;;;;;;;4992109;28;20220;-56
2023/01/27 13:04:49;;;;;;;2.90;2.63;;;;;;;;;;4992039;28;20419;-51
2023/01/27 13:07:17;;;;;;;5.10;3.97;;;;;;;;;;4985697;28;20204;-54
2023/01/27 13:09:50;;;;;;;2.47;2.27;;;;;;;;;;4984825;28;20203;-53
2023/01/27 13:12:20;;;;;;;4.03;2.70;;;;;;;;;;4979791;28;20224;-56
2023/01/27 13:14:50;;;;;;;2.73;2.50;;;;;;;;;;4980378;28;20595;-55
2023/01/27 13:17:29;;;;;;;2.30;1.90;;;;;;;;;;4992891;28;20197;-51
2023/01/27 13:19:57;;;;;;;2.97;2.50;;;;;;;;;;4980246;28;20382;-56
2023/01/27 13:22:25;;;;;;;3.03;2.20;;;;;;;;;;4975216;28;20197;-56
2023/01/27 13:24:57;;;;;;;4.13;3.13;;;;;;;;;;4986118;28;20224;-54
2023/01/27 13:27:25;;;;;;;4.57;3.00;;;;;;;;;;4989653;28;20209;-51
2023/01/27 13:29:58;;;;;;;4.73;3.00;;;;;;;;;;4991214;28;20205;-57
2023/01/27 13:32:27;;;;;;;8.77;5.23;;;;;;;;;;4992035;28;20286;-56
2023/01/27 13:35:00;;;;;;;4.50;3.17;;;;;;;;;;4993924;28;20438;-54
2023/01/27 13:37:32;;;;;;;2.73;2.50;;;;;;;;;;4993205;28;20206;-54
2023/01/27 13:40:03;;;;;;;3.20;2.40;;;;;;;;;;4997181;28;20283;-58
2023/01/27 13:42:34;;;;;;;2.50;2.30;;;;;;;;;;4988398;28;20208;-55
2023/01/27 13:45:03;;;;;;;3.50;2.67;;;;;;;;;;4992893;28;20220;-54
2023/01/27 13:47:34;;;;;;;4.87;3.87;;;;;;;;;;4996765;28;20209;-53
2023/01/27 13:50:06;;;;;;;3.47;2.70;;;;;;;;;;4992361;28;20216;-55
2023/01/27 13:52:33;;;;;;;2.63;2.43;;;;;;;;;;4995691;28;20394;-57
2023/01/27 13:55:02;;;;;;;2.60;2.03;;;;;;;;;;4997864;28;20232;-57
2023/01/27 13:57:44;;;;;;;2.73;2.53;;;;;;;;;;5000078;28;20215;-51
2023/01/27 14:00:14;;;;;;;2.07;1.87;;;;;;;;;;4993794;28;20212;-57
2023/01/27 14:02:49;;;;;;;2.00;1.90;;;;;;;;;;4996170;28;20197;-56
2023/01/27 14:05:26;;;;;;;2.10;2.00;;;;;;;;;;4990645;28;20231;-53
2023/01/27 14:07:57;;;;;;;2.00;1.90;;;;;;;;;;4995556;28;20335;-54
2023/01/27 14:10:31;;;;;;;2.50;2.30;;;;;;;;;;4992785;28;20197;-52
2023/01/27 14:13:03;;;;;;;2.30;2.10;;;;;;;;;;4994420;28;20314;-54
2023/01/27 14:15:35;;;;;;;1.90;1.80;;;;;;;;;;4996060;28;20524;-55
2023/01/27 14:18:06;;;;;;;1.93;1.73;;;;;;;;;;4990969;28;20216;-56
2023/01/27 14:20:38;;;;;;;3.20;2.60;;;;;;;;;;4992714;28;20197;-55
2023/01/27 14:23:13;;;;;;;2.83;1.93;;;;;;;;;;4991418;28;20196;-51
2023/01/27 14:25:45;;;;;;;2.20;2.00;;;;;;;;;;4995508;28;20205;-55
2023/01/27 14:28:18;;;;;;;3.10;2.77;;;;;;;;;;4994168;28;20209;-52
2023/01/27 14:30:49;;;;;;;4.23;3.50;;;;;;;;;;4995786;28;20215;-55
2023/01/27 14:33:19;;;;;;;7.67;5.80;;;;;;;;;;4992121;28;20232;-54
2023/01/27 14:35:49;;;;;;;7.50;5.70;;;;;;;;;;4990628;28;20204;-54
2023/01/27 14:38:20;;;;;;;5.60;4.37;;;;;;;;;;4995274;28;20439;-57
2023/01/27 14:40:54;;;;;;;8.27;6.00;;;;;;;;;;4992256;28;20205;-53
2023/01/27 14:43:33;;;;;;;29.83;23.67;;;;;;;;;;4996702;28;20204;-57
2023/01/27 14:46:05;;;;;;;7.10;6.00;;;;;;;;;;4990470;28;20216;-55
2023/01/27 14:48:39;;;;;;;7.57;4.63;;;;;;;;;;4991831;28;20208;-54
2023/01/27 14:51:08;;;;;;;4.80;4.23;;;;;;;;;;4993600;28;20287;-53
2023/01/27 14:53:43;;;;;;;5.60;4.07;;;;;;;;;;4997632;28;20224;-56
2023/01/27 14:56:19;;;;;;;5.73;3.97;;;;;;;;;;4992188;28;20206;-53
2023/01/27 14:58:48;;;;;;;4.77;4.07;;;;;;;;;;4991875;28;20230;-54
2023/01/27 15:01:21;;;;;;;4.67;4.23;;;;;;;;;;4990466;28;20205;-52
2023/01/27 15:04:12;;;;;;;3.50;3.10;;;;;;;;;;4989268;28;20208;-54
2023/01/27 15:06:43;;;;;;;3.27;2.97;;;;;;;;;;4989405;28;20207;-50
2023/01/27 15:09:16;;;;;;;6.57;4.03;;;;;;;;;;4992585;28;20200;-52
2023/01/27 15:11:57;;;;;;;3.70;3.17;;;;;;;;;;4992741;28;20208;-52
2023/01/27 15:14:41;;;;;;;5.73;4.60;;;;;;;;;;4990687;28;20242;-53
2023/01/27 15:17:22;;;;;;;3.43;3.13;;;;;;;;;;4989257;28;20533;-58
2023/01/27 15:19:57;;;;;;;3.40;3.10;;;;;;;;;;4988359;28;20208;-54
2023/01/27 15:22:30;;;;;;;3.53;3.23;;;;;;;;;;4990510;28;20207;-54
2023/01/27 15:25:01;;;;;;;2.47;2.27;;;;;;;;;;4990698;28;20205;-57
2023/01/27 15:27:30;;;;;;;3.50;2.90;;;;;;;;;;4994443;28;20229;-55
2023/01/27 15:30:04;;;;;;;6.53;3.40;;;;;;;;;;4993261;28;20201;-55